sensor_id;sensor_type;location;lat;lon;timestamp;temperature;humidity
20866;DHT22;10593;48.398;10.698;2022-08-18T00:01:54;25.30;53.50
20866;DHT22;10593;48.398;10.698;2022-08-18T00:04:37;25.30;53.60
20866;DHT22;10593;48.398;10.698;2022-08-18T00:07:09;25.20;53.60
20866;DHT22;10593;48.398;10.698;2022-08-18T00:09:39;25.20;53.70
20866;DHT22;10593;48.398;10.698;2022-08-18T00:12:16;25.20;54.30
20866;DHT22;10593;48.398;10.698;2022-08-18T00:14:48;25.20;54.30
20866;DHT22;10593;48.398;10.698;2022-08-18T00:17:15;25.10;54.30
20866;DHT22;10593;48.398;10.698;2022-08-18T00:19:42;25.10;54.30
20866;DHT22;10593;48.398;10.698;2022-08-18T00:22:09;25.10;54.50
20866;DHT22;10593;48.398;10.698;2022-08-18T00:24:35;25.10;54.50
20866;DHT22;10593;48.398;10.698;2022-08-18T00:27:03;25.10;54.60
20866;DHT22;10593;48.398;10.698;2022-08-18T00:29:30;25.00;54.60
20866;DHT22;10593;48.398;10.698;2022-08-18T00:31:57;25.00;54.60
20866;DHT22;10593;48.398;10.698;2022-08-18T00:34:23;25.00;54.80
20866;DHT22;10593;48.398;10.698;2022-08-18T00:36:49;25.00;54.80
20866;DHT22;10593;48.398;10.698;2022-08-18T00:39:15;25.00;55.00
20866;DHT22;10593;48.398;10.698;2022-08-18T00:41:41;24.90;55.00
20866;DHT22;10593;48.398;10.698;2022-08-18T00:44:07;24.90;55.00
20866;DHT22;10593;48.398;10.698;2022-08-18T00:46:36;24.90;55.00
20866;DHT22;10593;48.398;10.698;2022-08-18T00:49:03;24.90;55.30
20866;DHT22;10593;48.398;10.698;2022-08-18T00:51:38;24.90;55.30
20866;DHT22;10593;48.398;10.698;2022-08-18T00:54:20;24.80;55.50
20866;DHT22;10593;48.398;10.698;2022-08-18T00:56:51;24.80;55.40
20866;DHT22;10593;48.398;10.698;2022-08-18T01:02:10;24.80;55.70
20866;DHT22;10593;48.398;10.698;2022-08-18T01:04:49;24.70;55.40
20866;DHT22;10593;48.398;10.698;2022-08-18T01:07:26;24.70;55.40
20866;DHT22;10593;48.398;10.698;2022-08-18T01:09:57;24.70;55.50
20866;DHT22;10593;48.398;10.698;2022-08-18T01:12:29;24.70;55.50
20866;DHT22;10593;48.398;10.698;2022-08-18T01:14:56;24.70;55.70
20866;DHT22;10593;48.398;10.698;2022-08-18T01:17:23;24.70;55.70
20866;DHT22;10593;48.398;10.698;2022-08-18T01:20:16;24.60;55.70
20866;DHT22;10593;48.398;10.698;2022-08-18T01:23:14;24.60;55.80
20866;DHT22;10593;48.398;10.698;2022-08-18T01:25:43;24.60;55.90
20866;DHT22;10593;48.398;10.698;2022-08-18T01:28:26;24.60;55.80
20866;DHT22;10593;48.398;10.698;2022-08-18T01:30:56;24.50;55.70
20866;DHT22;10593;48.398;10.698;2022-08-18T01:33:24;24.50;56.00
20866;DHT22;10593;48.398;10.698;2022-08-18T01:36:13;24.50;55.90
20866;DHT22;10593;48.398;10.698;2022-08-18T01:38:47;24.50;56.10
20866;DHT22;10593;48.398;10.698;2022-08-18T01:41:17;24.40;56.10
20866;DHT22;10593;48.398;10.698;2022-08-18T01:43:47;24.40;56.10
20866;DHT22;10593;48.398;10.698;2022-08-18T01:46:17;24.40;56.10
20866;DHT22;10593;48.398;10.698;2022-08-18T01:48:44;24.40;56.10
20866;DHT22;10593;48.398;10.698;2022-08-18T01:51:12;24.40;56.10
20866;DHT22;10593;48.398;10.698;2022-08-18T01:53:38;24.40;56.30
20866;DHT22;10593;48.398;10.698;2022-08-18T01:56:04;24.30;56.30
20866;DHT22;10593;48.398;10.698;2022-08-18T01:58:33;24.30;56.40
20866;DHT22;10593;48.398;10.698;2022-08-18T02:01:00;24.30;56.50
20866;DHT22;10593;48.398;10.698;2022-08-18T02:03:35;24.30;56.50
20866;DHT22;10593;48.398;10.698;2022-08-18T02:06:08;24.30;56.50
20866;DHT22;10593;48.398;10.698;2022-08-18T02:08:36;24.20;56.40
20866;DHT22;10593;48.398;10.698;2022-08-18T02:11:03;24.20;56.50
20866;DHT22;10593;48.398;10.698;2022-08-18T02:13:31;24.20;56.60
20866;DHT22;10593;48.398;10.698;2022-08-18T02:15:57;24.20;56.60
20866;DHT22;10593;48.398;10.698;2022-08-18T02:18:26;24.20;56.60
20866;DHT22;10593;48.398;10.698;2022-08-18T02:20:55;24.20;56.80
20866;DHT22;10593;48.398;10.698;2022-08-18T02:23:30;24.20;56.90
20866;DHT22;10593;48.398;10.698;2022-08-18T02:25:56;24.20;56.90
20866;DHT22;10593;48.398;10.698;2022-08-18T02:28:22;24.20;56.90
20866;DHT22;10593;48.398;10.698;2022-08-18T02:30:47;24.10;56.80
20866;DHT22;10593;48.398;10.698;2022-08-18T02:33:13;24.10;56.90
20866;DHT22;10593;48.398;10.698;2022-08-18T02:35:39;24.10;57.00
20866;DHT22;10593;48.398;10.698;2022-08-18T02:38:06;24.10;57.00
20866;DHT22;10593;48.398;10.698;2022-08-18T02:40:33;24.10;57.00
20866;DHT22;10593;48.398;10.698;2022-08-18T02:43:08;24.00;57.00
20866;DHT22;10593;48.398;10.698;2022-08-18T02:45:38;24.00;57.40
20866;DHT22;10593;48.398;10.698;2022-08-18T02:48:04;24.00;57.40
20866;DHT22;10593;48.398;10.698;2022-08-18T02:50:31;24.00;57.30
20866;DHT22;10593;48.398;10.698;2022-08-18T02:52:57;24.00;57.20
20866;DHT22;10593;48.398;10.698;2022-08-18T02:55:23;24.00;57.40
20866;DHT22;10593;48.398;10.698;2022-08-18T02:57:51;24.00;57.30
20866;DHT22;10593;48.398;10.698;2022-08-18T03:00:18;24.00;57.40
20866;DHT22;10593;48.398;10.698;2022-08-18T03:02:48;23.90;57.40
20866;DHT22;10593;48.398;10.698;2022-08-18T03:05:16;23.90;57.40
20866;DHT22;10593;48.398;10.698;2022-08-18T03:07:43;23.90;57.30
20866;DHT22;10593;48.398;10.698;2022-08-18T03:10:10;23.90;57.30
20866;DHT22;10593;48.398;10.698;2022-08-18T03:12:36;23.90;57.30
20866;DHT22;10593;48.398;10.698;2022-08-18T03:15:02;23.90;57.30
20866;DHT22;10593;48.398;10.698;2022-08-18T03:17:28;23.90;57.30
20866;DHT22;10593;48.398;10.698;2022-08-18T03:19:56;23.90;57.30
20866;DHT22;10593;48.398;10.698;2022-08-18T03:22:21;23.90;57.40
20866;DHT22;10593;48.398;10.698;2022-08-18T03:24:47;23.80;57.40
20866;DHT22;10593;48.398;10.698;2022-08-18T03:27:13;23.80;57.50
20866;DHT22;10593;48.398;10.698;2022-08-18T03:29:38;23.80;57.50
20866;DHT22;10593;48.398;10.698;2022-08-18T03:32:06;23.80;57.50
20866;DHT22;10593;48.398;10.698;2022-08-18T03:34:33;23.80;57.40
20866;DHT22;10593;48.398;10.698;2022-08-18T03:36:59;23.70;57.20
20866;DHT22;10593;48.398;10.698;2022-08-18T03:39:25;23.80;57.30
20866;DHT22;10593;48.398;10.698;2022-08-18T03:41:53;23.80;57.40
20866;DHT22;10593;48.398;10.698;2022-08-18T03:44:21;23.70;57.30
20866;DHT22;10593;48.398;10.698;2022-08-18T03:46:50;23.70;57.30
20866;DHT22;10593;48.398;10.698;2022-08-18T03:49:16;23.70;57.30
20866;DHT22;10593;48.398;10.698;2022-08-18T03:51:44;23.70;57.40
20866;DHT22;10593;48.398;10.698;2022-08-18T03:54:15;23.70;57.40
20866;DHT22;10593;48.398;10.698;2022-08-18T03:56:43;23.70;57.40
20866;DHT22;10593;48.398;10.698;2022-08-18T03:59:22;23.70;57.40
20866;DHT22;10593;48.398;10.698;2022-08-18T04:01:50;23.70;57.50
20866;DHT22;10593;48.398;10.698;2022-08-18T04:04:22;23.60;57.20
20866;DHT22;10593;48.398;10.698;2022-08-18T04:06:54;23.60;57.20
20866;DHT22;10593;48.398;10.698;2022-08-18T04:09:23;23.60;57.20
20866;DHT22;10593;48.398;10.698;2022-08-18T04:11:52;23.60;57.20
20866;DHT22;10593;48.398;10.698;2022-08-18T04:14:21;23.60;57.20
20866;DHT22;10593;48.398;10.698;2022-08-18T04:16:49;23.50;57.10
20866;DHT22;10593;48.398;10.698;2022-08-18T04:19:16;23.60;57.20
20866;DHT22;10593;48.398;10.698;2022-08-18T04:21:43;23.50;57.20
20866;DHT22;10593;48.398;10.698;2022-08-18T04:24:12;23.50;57.10
20866;DHT22;10593;48.398;10.698;2022-08-18T04:26:42;23.50;57.10
20866;DHT22;10593;48.398;10.698;2022-08-18T04:29:11;23.50;56.80
20866;DHT22;10593;48.398;10.698;2022-08-18T04:31:38;23.50;56.90
20866;DHT22;10593;48.398;10.698;2022-08-18T04:34:05;23.40;56.90
20866;DHT22;10593;48.398;10.698;2022-08-18T04:36:33;23.40;56.90
20866;DHT22;10593;48.398;10.698;2022-08-18T04:39:01;23.40;57.00
20866;DHT22;10593;48.398;10.698;2022-08-18T04:41:29;23.30;56.90
20866;DHT22;10593;48.398;10.698;2022-08-18T04:44:01;23.30;57.00
20866;DHT22;10593;48.398;10.698;2022-08-18T04:46:33;23.40;57.20
20866;DHT22;10593;48.398;10.698;2022-08-18T04:49:01;23.40;57.20
20866;DHT22;10593;48.398;10.698;2022-08-18T04:51:28;23.40;57.20
20866;DHT22;10593;48.398;10.698;2022-08-18T04:53:56;23.30;57.30
20866;DHT22;10593;48.398;10.698;2022-08-18T04:56:35;23.30;57.40
20866;DHT22;10593;48.398;10.698;2022-08-18T04:59:12;23.40;57.40
20866;DHT22;10593;48.398;10.698;2022-08-18T05:01:41;23.30;57.40
20866;DHT22;10593;48.398;10.698;2022-08-18T05:04:10;23.40;57.40
20866;DHT22;10593;48.398;10.698;2022-08-18T05:06:38;23.40;57.30
20866;DHT22;10593;48.398;10.698;2022-08-18T05:09:07;23.30;57.40
20866;DHT22;10593;48.398;10.698;2022-08-18T05:11:35;23.40;57.40
20866;DHT22;10593;48.398;10.698;2022-08-18T05:14:04;23.40;57.40
20866;DHT22;10593;48.398;10.698;2022-08-18T05:16:31;23.40;57.50
20866;DHT22;10593;48.398;10.698;2022-08-18T05:19:00;23.40;57.50
20866;DHT22;10593;48.398;10.698;2022-08-18T05:21:30;23.40;57.50
20866;DHT22;10593;48.398;10.698;2022-08-18T05:23:57;23.50;57.50
20866;DHT22;10593;48.398;10.698;2022-08-18T05:26:24;23.40;57.20
20866;DHT22;10593;48.398;10.698;2022-08-18T05:28:50;23.50;57.40
20866;DHT22;10593;48.398;10.698;2022-08-18T05:31:18;23.50;57.50
20866;DHT22;10593;48.398;10.698;2022-08-18T05:33:47;23.50;57.50
20866;DHT22;10593;48.398;10.698;2022-08-18T05:36:25;23.50;57.60
20866;DHT22;10593;48.398;10.698;2022-08-18T05:41:53;23.50;57.60
20866;DHT22;10593;48.398;10.698;2022-08-18T05:44:30;23.50;57.60
20866;DHT22;10593;48.398;10.698;2022-08-18T05:47:04;23.50;57.90
20866;DHT22;10593;48.398;10.698;2022-08-18T05:49:33;23.50;57.90
20866;DHT22;10593;48.398;10.698;2022-08-18T05:52:04;23.50;57.80
20866;DHT22;10593;48.398;10.698;2022-08-18T05:54:50;23.50;57.70
20866;DHT22;10593;48.398;10.698;2022-08-18T05:57:42;23.50;57.80
20866;DHT22;10593;48.398;10.698;2022-08-18T06:00:16;23.50;57.80
20866;DHT22;10593;48.398;10.698;2022-08-18T06:06:19;23.40;57.70
20866;DHT22;10593;48.398;10.698;2022-08-18T06:11:39;23.40;57.90
20866;DHT22;10593;48.398;10.698;2022-08-18T06:14:05;23.50;57.80
20866;DHT22;10593;48.398;10.698;2022-08-18T06:19:50;23.40;57.90
20866;DHT22;10593;48.398;10.698;2022-08-18T06:22:31;23.40;58.10
20866;DHT22;10593;48.398;10.698;2022-08-18T06:25:21;23.40;58.00
20866;DHT22;10593;48.398;10.698;2022-08-18T06:28:12;23.30;58.00
20866;DHT22;10593;48.398;10.698;2022-08-18T06:30:57;23.40;58.20
20866;DHT22;10593;48.398;10.698;2022-08-18T06:39:25;23.30;58.40
20866;DHT22;10593;48.398;10.698;2022-08-18T06:41:58;23.30;58.30
20866;DHT22;10593;48.398;10.698;2022-08-18T06:44:31;23.30;58.20
20866;DHT22;10593;48.398;10.698;2022-08-18T06:50:07;23.30;58.70
20866;DHT22;10593;48.398;10.698;2022-08-18T06:52:38;23.30;58.50
20866;DHT22;10593;48.398;10.698;2022-08-18T06:55:18;23.30;58.50
20866;DHT22;10593;48.398;10.698;2022-08-18T06:58:14;23.30;58.80
20866;DHT22;10593;48.398;10.698;2022-08-18T07:03:19;23.40;59.30
20866;DHT22;10593;48.398;10.698;2022-08-18T07:06:05;23.40;59.60
20866;DHT22;10593;48.398;10.698;2022-08-18T07:08:32;23.50;59.70
20866;DHT22;10593;48.398;10.698;2022-08-18T07:11:19;23.50;59.80
20866;DHT22;10593;48.398;10.698;2022-08-18T07:13:53;23.60;59.30
20866;DHT22;10593;48.398;10.698;2022-08-18T07:16:33;23.70;59.40
20866;DHT22;10593;48.398;10.698;2022-08-18T07:19:17;23.70;59.40
20866;DHT22;10593;48.398;10.698;2022-08-18T07:22:08;23.80;59.50
20866;DHT22;10593;48.398;10.698;2022-08-18T07:24:51;23.80;59.10
20866;DHT22;10593;48.398;10.698;2022-08-18T07:27:21;23.90;59.00
20866;DHT22;10593;48.398;10.698;2022-08-18T07:30:11;23.90;58.80
20866;DHT22;10593;48.398;10.698;2022-08-18T07:33:07;23.90;58.90
20866;DHT22;10593;48.398;10.698;2022-08-18T07:35:48;23.90;58.80
20866;DHT22;10593;48.398;10.698;2022-08-18T07:38:31;23.90;58.80
20866;DHT22;10593;48.398;10.698;2022-08-18T07:41:24;23.80;58.90
20866;DHT22;10593;48.398;10.698;2022-08-18T07:44:16;23.80;59.00
20866;DHT22;10593;48.398;10.698;2022-08-18T07:47:22;23.90;58.80
20866;DHT22;10593;48.398;10.698;2022-08-18T07:49:53;23.80;59.10
20866;DHT22;10593;48.398;10.698;2022-08-18T07:52:31;23.80;59.00
20866;DHT22;10593;48.398;10.698;2022-08-18T07:58:08;23.80;59.50
20866;DHT22;10593;48.398;10.698;2022-08-18T08:01:02;23.80;59.50
20866;DHT22;10593;48.398;10.698;2022-08-18T08:03:48;23.80;59.50
20866;DHT22;10593;48.398;10.698;2022-08-18T08:06:36;23.90;59.60
20866;DHT22;10593;48.398;10.698;2022-08-18T08:09:22;23.90;59.60
20866;DHT22;10593;48.398;10.698;2022-08-18T08:12:17;23.90;59.60
20866;DHT22;10593;48.398;10.698;2022-08-18T08:18:08;23.90;59.60
20866;DHT22;10593;48.398;10.698;2022-08-18T08:21:02;23.90;59.60
20866;DHT22;10593;48.398;10.698;2022-08-18T08:23:51;23.90;59.60
20866;DHT22;10593;48.398;10.698;2022-08-18T08:29:51;24.00;59.60
20866;DHT22;10593;48.398;10.698;2022-08-18T08:35:12;24.00;59.60
20866;DHT22;10593;48.398;10.698;2022-08-18T08:37:46;24.00;59.60
20866;DHT22;10593;48.398;10.698;2022-08-18T08:40:21;24.00;59.50
20866;DHT22;10593;48.398;10.698;2022-08-18T08:43:06;24.00;59.60
20866;DHT22;10593;48.398;10.698;2022-08-18T08:45:41;24.00;59.60
20866;DHT22;10593;48.398;10.698;2022-08-18T08:48:16;24.00;59.60
20866;DHT22;10593;48.398;10.698;2022-08-18T08:50:58;24.00;59.60
20866;DHT22;10593;48.398;10.698;2022-08-18T08:53:33;24.10;59.60
20866;DHT22;10593;48.398;10.698;2022-08-18T08:56:09;24.10;59.70
20866;DHT22;10593;48.398;10.698;2022-08-18T08:58:55;24.10;59.50
20866;DHT22;10593;48.398;10.698;2022-08-18T09:04:21;24.20;60.50
20866;DHT22;10593;48.398;10.698;2022-08-18T09:12:41;24.40;60.30
20866;DHT22;10593;48.398;10.698;2022-08-18T09:24:17;24.70;58.70
20866;DHT22;10593;48.398;10.698;2022-08-18T09:27:12;24.80;58.70
20866;DHT22;10593;48.398;10.698;2022-08-18T09:29:58;24.90;58.40
20866;DHT22;10593;48.398;10.698;2022-08-18T09:40:56;25.10;57.40
20866;DHT22;10593;48.398;10.698;2022-08-18T09:44:05;25.10;57.40
20866;DHT22;10593;48.398;10.698;2022-08-18T09:46:56;25.20;56.90
20866;DHT22;10593;48.398;10.698;2022-08-18T09:51:59;25.20;56.50
20866;DHT22;10593;48.398;10.698;2022-08-18T10:07:49;25.40;57.10
20866;DHT22;10593;48.398;10.698;2022-08-18T10:13:35;25.40;56.60
20866;DHT22;10593;48.398;10.698;2022-08-18T10:16:33;25.50;56.60
20866;DHT22;10593;48.398;10.698;2022-08-18T10:27:10;25.60;56.60
20866;DHT22;10593;48.398;10.698;2022-08-18T10:29:56;25.60;56.50
20866;DHT22;10593;48.398;10.698;2022-08-18T10:32:34;25.60;56.40
20866;DHT22;10593;48.398;10.698;2022-08-18T10:35:04;25.70;56.60
20866;DHT22;10593;48.398;10.698;2022-08-18T10:37:45;25.80;56.70
20866;DHT22;10593;48.398;10.698;2022-08-18T10:40:16;25.80;56.40
20866;DHT22;10593;48.398;10.698;2022-08-18T10:42:56;25.80;56.30
20866;DHT22;10593;48.398;10.698;2022-08-18T10:45:45;25.90;56.10
20866;DHT22;10593;48.398;10.698;2022-08-18T10:48:32;25.90;56.40
20866;DHT22;10593;48.398;10.698;2022-08-18T10:53:57;26.00;56.10
20866;DHT22;10593;48.398;10.698;2022-08-18T10:56:47;26.00;55.90
20866;DHT22;10593;48.398;10.698;2022-08-18T10:59:28;26.10;55.50
20866;DHT22;10593;48.398;10.698;2022-08-18T11:04:48;26.10;55.60
20866;DHT22;10593;48.398;10.698;2022-08-18T11:07:24;26.10;55.50
20866;DHT22;10593;48.398;10.698;2022-08-18T11:09:54;26.20;55.20
20866;DHT22;10593;48.398;10.698;2022-08-18T11:18:33;26.20;54.40
20866;DHT22;10593;48.398;10.698;2022-08-18T11:21:24;26.20;54.40
20866;DHT22;10593;48.398;10.698;2022-08-18T11:24:21;26.20;55.30
20866;DHT22;10593;48.398;10.698;2022-08-18T11:27:04;26.30;54.90
20866;DHT22;10593;48.398;10.698;2022-08-18T11:29:41;26.30;54.30
20866;DHT22;10593;48.398;10.698;2022-08-18T11:32:16;26.30;54.40
20866;DHT22;10593;48.398;10.698;2022-08-18T11:38:10;26.30;54.30
20866;DHT22;10593;48.398;10.698;2022-08-18T11:40:42;26.40;54.00
20866;DHT22;10593;48.398;10.698;2022-08-18T11:43:34;26.40;54.10
20866;DHT22;10593;48.398;10.698;2022-08-18T11:47:07;26.40;54.00
20866;DHT22;10593;48.398;10.698;2022-08-18T11:49:18;26.40;52.80
20866;DHT22;10593;48.398;10.698;2022-08-18T11:51:56;26.40;52.70
20866;DHT22;10593;48.398;10.698;2022-08-18T11:54:34;26.40;52.90
20866;DHT22;10593;48.398;10.698;2022-08-18T11:59:57;26.50;52.30
20866;DHT22;10593;48.398;10.698;2022-08-18T12:02:24;26.50;52.50
20866;DHT22;10593;48.398;10.698;2022-08-18T12:04:59;26.50;52.40
20866;DHT22;10593;48.398;10.698;2022-08-18T12:07:31;26.60;52.30
20866;DHT22;10593;48.398;10.698;2022-08-18T12:10:21;26.60;53.00
20866;DHT22;10593;48.398;10.698;2022-08-18T12:12:51;26.60;52.80
20866;DHT22;10593;48.398;10.698;2022-08-18T12:17:45;26.60;51.80
20866;DHT22;10593;48.398;10.698;2022-08-18T12:20:13;26.60;51.60
20866;DHT22;10593;48.398;10.698;2022-08-18T12:22:43;26.70;51.80
20866;DHT22;10593;48.398;10.698;2022-08-18T12:25:12;26.60;51.80
20866;DHT22;10593;48.398;10.698;2022-08-18T12:27:40;26.70;50.60
20866;DHT22;10593;48.398;10.698;2022-08-18T12:30:08;26.70;50.30
20866;DHT22;10593;48.398;10.698;2022-08-18T12:32:36;26.70;50.40
20866;DHT22;10593;48.398;10.698;2022-08-18T12:35:04;26.70;51.00
20866;DHT22;10593;48.398;10.698;2022-08-18T12:37:32;26.70;51.20
20866;DHT22;10593;48.398;10.698;2022-08-18T12:39:58;26.70;51.20
20866;DHT22;10593;48.398;10.698;2022-08-18T12:42:25;26.80;51.50
20866;DHT22;10593;48.398;10.698;2022-08-18T12:44:52;26.80;51.80
20866;DHT22;10593;48.398;10.698;2022-08-18T12:47:21;26.80;52.10
20866;DHT22;10593;48.398;10.698;2022-08-18T12:49:49;26.80;52.00
20866;DHT22;10593;48.398;10.698;2022-08-18T12:52:16;26.90;51.70
20866;DHT22;10593;48.398;10.698;2022-08-18T12:54:43;26.90;51.60
20866;DHT22;10593;48.398;10.698;2022-08-18T12:57:18;26.90;51.30
20866;DHT22;10593;48.398;10.698;2022-08-18T12:59:46;26.90;51.20
20866;DHT22;10593;48.398;10.698;2022-08-18T13:02:12;26.90;51.30
20866;DHT22;10593;48.398;10.698;2022-08-18T13:04:38;26.90;50.80
20866;DHT22;10593;48.398;10.698;2022-08-18T13:07:04;26.90;50.60
20866;DHT22;10593;48.398;10.698;2022-08-18T13:09:34;26.90;50.80
20866;DHT22;10593;48.398;10.698;2022-08-18T13:12:01;26.90;50.90
20866;DHT22;10593;48.398;10.698;2022-08-18T13:14:27;26.90;50.50
20866;DHT22;10593;48.398;10.698;2022-08-18T13:16:53;26.90;50.60
20866;DHT22;10593;48.398;10.698;2022-08-18T13:19:19;26.90;50.30
20866;DHT22;10593;48.398;10.698;2022-08-18T13:21:44;26.90;50.10
20866;DHT22;10593;48.398;10.698;2022-08-18T13:24:11;26.90;50.10
20866;DHT22;10593;48.398;10.698;2022-08-18T13:26:41;26.90;50.10
20866;DHT22;10593;48.398;10.698;2022-08-18T13:29:09;26.90;50.40
20866;DHT22;10593;48.398;10.698;2022-08-18T13:31:35;26.90;50.40
20866;DHT22;10593;48.398;10.698;2022-08-18T13:34:02;26.90;50.10
20866;DHT22;10593;48.398;10.698;2022-08-18T13:36:29;26.90;50.50
20866;DHT22;10593;48.398;10.698;2022-08-18T13:39:15;26.90;50.80
20866;DHT22;10593;48.398;10.698;2022-08-18T13:41:43;26.90;50.90
20866;DHT22;10593;48.398;10.698;2022-08-18T13:44:11;27.00;50.60
20866;DHT22;10593;48.398;10.698;2022-08-18T13:46:39;27.00;50.60
20866;DHT22;10593;48.398;10.698;2022-08-18T13:49:16;27.00;50.20
20866;DHT22;10593;48.398;10.698;2022-08-18T13:51:46;27.00;49.60
20866;DHT22;10593;48.398;10.698;2022-08-18T13:54:30;27.00;49.30
20866;DHT22;10593;48.398;10.698;2022-08-18T13:56:59;27.00;49.20
20866;DHT22;10593;48.398;10.698;2022-08-18T13:59:25;27.00;49.90
20866;DHT22;10593;48.398;10.698;2022-08-18T14:01:57;27.00;50.00
20866;DHT22;10593;48.398;10.698;2022-08-18T14:04:24;27.00;50.30
20866;DHT22;10593;48.398;10.698;2022-08-18T14:06:50;27.10;50.30
20866;DHT22;10593;48.398;10.698;2022-08-18T14:09:16;27.00;50.40
20866;DHT22;10593;48.398;10.698;2022-08-18T14:11:42;27.10;50.50
20866;DHT22;10593;48.398;10.698;2022-08-18T14:14:09;27.10;50.60
20866;DHT22;10593;48.398;10.698;2022-08-18T14:16:34;27.10;50.20
20866;DHT22;10593;48.398;10.698;2022-08-18T14:19:01;27.20;50.30
20866;DHT22;10593;48.398;10.698;2022-08-18T14:21:47;27.20;50.10
20866;DHT22;10593;48.398;10.698;2022-08-18T14:24:34;27.20;49.70
20866;DHT22;10593;48.398;10.698;2022-08-18T14:27:32;27.20;50.00
20866;DHT22;10593;48.398;10.698;2022-08-18T14:30:04;27.20;49.90
20866;DHT22;10593;48.398;10.698;2022-08-18T14:32:32;27.20;49.90
20866;DHT22;10593;48.398;10.698;2022-08-18T14:35:02;27.20;49.90
20866;DHT22;10593;48.398;10.698;2022-08-18T14:37:30;27.30;49.80
20866;DHT22;10593;48.398;10.698;2022-08-18T14:39:57;27.30;49.90
20866;DHT22;10593;48.398;10.698;2022-08-18T14:42:23;27.30;50.00
20866;DHT22;10593;48.398;10.698;2022-08-18T14:44:49;27.30;50.20
20866;DHT22;10593;48.398;10.698;2022-08-18T14:47:15;27.30;50.10
20866;DHT22;10593;48.398;10.698;2022-08-18T14:49:42;27.30;50.10
20866;DHT22;10593;48.398;10.698;2022-08-18T14:52:08;27.30;49.90
20866;DHT22;10593;48.398;10.698;2022-08-18T14:54:36;27.30;50.30
20866;DHT22;10593;48.398;10.698;2022-08-18T14:57:02;27.30;50.00
20866;DHT22;10593;48.398;10.698;2022-08-18T14:59:30;27.40;50.10
20866;DHT22;10593;48.398;10.698;2022-08-18T15:01:57;27.40;49.90
20866;DHT22;10593;48.398;10.698;2022-08-18T15:04:24;27.40;49.90
20866;DHT22;10593;48.398;10.698;2022-08-18T15:06:52;27.30;49.90
20866;DHT22;10593;48.398;10.698;2022-08-18T15:09:18;27.30;49.80
20866;DHT22;10593;48.398;10.698;2022-08-18T15:11:44;27.30;49.80
20866;DHT22;10593;48.398;10.698;2022-08-18T15:14:09;27.30;49.90
20866;DHT22;10593;48.398;10.698;2022-08-18T15:16:35;27.30;49.80
20866;DHT22;10593;48.398;10.698;2022-08-18T15:19:02;27.30;49.80
20866;DHT22;10593;48.398;10.698;2022-08-18T15:21:29;27.30;49.80
20866;DHT22;10593;48.398;10.698;2022-08-18T15:24:14;27.30;49.70
20866;DHT22;10593;48.398;10.698;2022-08-18T15:26:59;27.30;49.50
20866;DHT22;10593;48.398;10.698;2022-08-18T15:29:27;27.30;49.60
20866;DHT22;10593;48.398;10.698;2022-08-18T15:31:53;27.30;49.80
20866;DHT22;10593;48.398;10.698;2022-08-18T15:34:19;27.30;49.80
20866;DHT22;10593;48.398;10.698;2022-08-18T15:36:46;27.30;50.10
20866;DHT22;10593;48.398;10.698;2022-08-18T15:39:13;27.30;49.80
20866;DHT22;10593;48.398;10.698;2022-08-18T15:41:41;27.30;49.90
20866;DHT22;10593;48.398;10.698;2022-08-18T15:44:15;27.30;49.90
20866;DHT22;10593;48.398;10.698;2022-08-18T15:46:43;27.30;50.10
20866;DHT22;10593;48.398;10.698;2022-08-18T15:49:09;27.30;50.10
20866;DHT22;10593;48.398;10.698;2022-08-18T15:51:38;27.20;50.10
20866;DHT22;10593;48.398;10.698;2022-08-18T15:54:06;27.30;50.20
20866;DHT22;10593;48.398;10.698;2022-08-18T15:56:32;27.20;50.20
20866;DHT22;10593;48.398;10.698;2022-08-18T15:58:59;27.30;50.00
20866;DHT22;10593;48.398;10.698;2022-08-18T16:01:31;27.30;50.00
20866;DHT22;10593;48.398;10.698;2022-08-18T16:04:04;27.20;49.90
20866;DHT22;10593;48.398;10.698;2022-08-18T16:06:33;27.20;50.00
20866;DHT22;10593;48.398;10.698;2022-08-18T16:09:02;27.20;50.00
20866;DHT22;10593;48.398;10.698;2022-08-18T16:11:28;27.20;50.00
20866;DHT22;10593;48.398;10.698;2022-08-18T16:13:55;27.20;50.20
20866;DHT22;10593;48.398;10.698;2022-08-18T16:16:23;27.20;50.30
20866;DHT22;10593;48.398;10.698;2022-08-18T16:18:50;27.20;50.40
20866;DHT22;10593;48.398;10.698;2022-08-18T16:21:20;27.20;50.50
20866;DHT22;10593;48.398;10.698;2022-08-18T16:23:51;27.20;50.70
20866;DHT22;10593;48.398;10.698;2022-08-18T16:26:19;27.20;50.80
20866;DHT22;10593;48.398;10.698;2022-08-18T16:28:48;27.20;51.10
20866;DHT22;10593;48.398;10.698;2022-08-18T16:31:17;27.20;51.30
20866;DHT22;10593;48.398;10.698;2022-08-18T16:33:50;27.10;51.20
20866;DHT22;10593;48.398;10.698;2022-08-18T16:36:17;27.10;51.40
20866;DHT22;10593;48.398;10.698;2022-08-18T16:38:43;27.10;51.60
20866;DHT22;10593;48.398;10.698;2022-08-18T16:41:12;27.10;52.00
20866;DHT22;10593;48.398;10.698;2022-08-18T16:43:41;27.10;52.40
20866;DHT22;10593;48.398;10.698;2022-08-18T16:46:29;27.10;52.70
20866;DHT22;10593;48.398;10.698;2022-08-18T16:48:56;27.10;53.80
20866;DHT22;10593;48.398;10.698;2022-08-18T16:51:24;27.10;53.50
20866;DHT22;10593;48.398;10.698;2022-08-18T16:53:51;27.10;53.90
20866;DHT22;10593;48.398;10.698;2022-08-18T16:56:28;27.10;53.80
20866;DHT22;10593;48.398;10.698;2022-08-18T16:58:56;27.00;54.30
20866;DHT22;10593;48.398;10.698;2022-08-18T17:01:41;27.00;53.90
20866;DHT22;10593;48.398;10.698;2022-08-18T17:04:28;27.00;53.70
20866;DHT22;10593;48.398;10.698;2022-08-18T17:06:57;27.00;53.60
20866;DHT22;10593;48.398;10.698;2022-08-18T17:09:25;27.00;53.70
20866;DHT22;10593;48.398;10.698;2022-08-18T17:11:51;26.90;53.60
20866;DHT22;10593;48.398;10.698;2022-08-18T17:14:18;26.90;53.80
20866;DHT22;10593;48.398;10.698;2022-08-18T17:16:48;26.90;53.80
20866;DHT22;10593;48.398;10.698;2022-08-18T17:19:18;26.90;53.80
20866;DHT22;10593;48.398;10.698;2022-08-18T17:21:44;26.90;53.50
20866;DHT22;10593;48.398;10.698;2022-08-18T17:24:10;26.80;53.00
20866;DHT22;10593;48.398;10.698;2022-08-18T17:29:42;26.80;54.20
20866;DHT22;10593;48.398;10.698;2022-08-18T17:32:28;26.70;55.10
20866;DHT22;10593;48.398;10.698;2022-08-18T17:35:14;26.70;55.60
20866;DHT22;10593;48.398;10.698;2022-08-18T17:37:51;26.60;55.70
20866;DHT22;10593;48.398;10.698;2022-08-18T17:40:29;26.50;56.30
20866;DHT22;10593;48.398;10.698;2022-08-18T17:43:00;26.50;56.10
20866;DHT22;10593;48.398;10.698;2022-08-18T17:45:29;26.40;55.80